Portada
METAR-TAF:

METAR-TAF

Aeroports :

Guaratinguetá, São Paulo, Brasil

latitud: 22-47S, longitud: 045-12W, altitud: 537 m

Observació

L'informe es va fer fa 42 minuts, a les 22:00 UTC
Vent 5 kt del Nord/Nord-Est
Temperatura 25°C
Humitat 61%
Pressió 1013 hPa
Visibilitat 10 km o més
Escasses núvols a una alçada de 2500 ft

METAR: SBGW 132200Z 03005KT 9999 FEW025 25/17 Q1013

Hora: 20:42 (22:42 UTC)

Pronòstic

L'informe es va fer fa 7 hores i 12 minuts, a les 15:30 UTC
Pronòstic vàlid del 13 a les 18 UTC al 14 a les 06 UTC
Vent 10 kt del Nord-Est
Visibilitat: 8000 m
Núvols disperses a una alçada de 3000 ft
Evolucionant progressivament
l' 13 a les 22 UTC al 13 a les 24 UTC
Vent 4 kt del Est/Sud-Est
Cel ennuvolat a una alçada de 2000 ft

TAF: SBGW 131530Z 1318/1406 04010KT 8000 SCT030 TX28/1318Z TN20/1405Z BECMG 1322/1324 12004KT BKN020 RMK PCX

Observacions i pronòstics meteorològics de més de 4000 aeroports (METAR i TAF).

Les estacions disponibles són els punts grocs i vermells al mapa.

Posi el ratolí al punt desitjat per veure el nom de l'estació.

Feu clic per veure les observacions i els pronòstics meteorològics.

Per canviar el mapa: feu clic els botons verds amb una creu de color negre per apropar; al botó verd amb un guió per allunyar la imatge; o en les fletxes verdes per a mapes adjacents.


METAR-TAF: